Time;durP1;ratioP1;P1;durP2;ratioP2;P2;SDS_P1;SDS_P2;PMS_P1;PMS_P2;Temp;Humidity;BMP_temperature;BMP_pressure;BME280_temperature;BME280_humidity;BME280_pressure;Samples;Min_cycle;Max_cycle;Signal;HPM_P1;HPM_P2
2023/08/05 00:00:44;;;;;;;19.20;5.80;;;;;;;-144.73;100.00;54512.38;4951200;28;20111;-70
2023/08/05 00:03:10;;;;;;;14.52;5.03;;;;;;;-144.73;100.00;54539.06;4949289;28;20034;-71
2023/08/05 00:05:37;;;;;;;16.80;5.00;;;;;;;-144.73;100.00;54539.06;4951513;28;20023;-71
2023/08/05 00:08:03;;;;;;;19.52;5.32;;;;;;;-144.73;100.00;54522.63;4934939;28;20026;-70
2023/08/05 00:10:29;;;;;;;19.70;5.05;;;;;;;-144.73;100.00;54498.00;4947394;28;20088;-70
2023/08/05 00:12:54;;;;;;;18.85;4.93;;;;;;;-144.73;100.00;54563.69;4976166;28;20028;-70
2023/08/05 00:15:19;;;;;;;16.70;4.85;;;;;;;-144.73;100.00;54539.06;5035793;28;20052;-70
2023/08/05 00:17:45;;;;;;;17.67;5.30;;;;;;;-144.73;100.00;54553.44;4988030;28;20472;-70
2023/08/05 00:20:12;;;;;;;11.23;4.60;;;;;;;-144.73;100.00;54555.47;4959174;28;20051;-70
2023/08/05 00:22:37;;;;;;;15.63;4.88;;;;;;;-144.73;100.00;54491.84;4959811;28;20081;-70
2023/08/05 00:25:03;;;;;;;20.63;5.63;;;;;;;-144.73;100.00;54502.13;4981488;28;20021;-71
2023/08/05 00:27:28;;;;;;;19.35;5.07;;;;;;;-144.73;100.00;54493.91;4992169;28;20040;-70
2023/08/05 00:29:53;;;;;;;19.58;5.63;;;;;;;-144.73;100.00;54565.75;4938994;28;20093;-70
2023/08/05 00:32:19;;;;;;;18.48;4.18;;;;;;;-144.73;100.00;54543.16;4975318;28;20029;-69
2023/08/05 00:34:44;;;;;;;16.42;5.63;;;;;;;-144.73;100.00;54559.59;5004334;28;20040;-70
2023/08/05 00:37:09;;;;;;;13.25;4.32;;;;;;;-144.73;100.00;54498.00;4986594;28;20083;-69
2023/08/05 00:39:35;;;;;;;15.20;4.28;;;;;;;-144.73;100.00;54604.75;4969786;28;20035;-70
2023/08/05 00:42:00;;;;;;;21.70;5.82;;;;;;;-144.73;100.00;54571.91;4993180;28;20127;-70
2023/08/05 00:44:25;;;;;;;29.70;5.30;;;;;;;-144.73;100.00;54518.53;4937383;28;20062;-70
2023/08/05 00:46:52;;;;;;;21.20;5.38;;;;;;;-144.73;100.00;54563.69;4980384;28;20042;-70
2023/08/05 00:49:19;;;;;;;16.42;5.53;;;;;;;-144.73;100.00;54518.53;4952456;28;20051;-70
2023/08/05 00:51:45;;;;;;;23.90;5.15;;;;;;;-144.73;100.00;54543.16;5022665;28;20054;-70
2023/08/05 00:54:11;;;;;;;14.10;4.53;;;;;;;-144.73;100.00;54604.75;5033702;28;20035;-70
2023/08/05 00:56:36;;;;;;;11.20;3.83;;;;;;;-144.73;100.00;54518.53;5042901;28;20033;-69
2023/08/05 00:59:02;;;;;;;10.10;4.70;;;;;;;-144.73;100.00;54498.00;4961428;28;20025;-70
2023/08/05 01:01:27;;;;;;;17.38;5.43;;;;;;;-144.73;100.00;54504.16;4973958;28;20032;-70
2023/08/05 01:03:52;;;;;;;10.85;4.47;;;;;;;-144.73;100.00;54530.84;4971944;28;20059;-70
2023/08/05 01:06:19;;;;;;;20.20;5.53;;;;;;;-144.73;100.00;54473.38;4981719;28;20059;-70
2023/08/05 01:08:45;;;;;;;17.95;5.65;;;;;;;-144.73;100.00;54518.53;4991547;28;20475;-71
2023/08/05 01:11:11;;;;;;;14.20;5.20;;;;;;;-144.73;100.00;54518.53;4958666;28;20070;-70
2023/08/05 01:13:37;;;;;;;19.38;5.57;;;;;;;-144.73;100.00;54514.44;4952028;28;20042;-69
2023/08/05 01:16:02;;;;;;;14.15;4.75;;;;;;;-144.73;100.00;54539.06;4932638;28;20042;-70
2023/08/05 01:18:29;;;;;;;22.25;5.75;;;;;;;-144.73;100.00;54530.84;4966075;28;20029;-70
2023/08/05 01:20:57;;;;;;;16.75;6.07;;;;;;;-144.73;100.00;54522.63;4950256;28;20119;-70
2023/08/05 01:23:35;;;;;;;16.70;5.95;;;;;;;-144.73;100.00;54547.28;4934176;28;20089;-70
2023/08/05 01:26:02;;;;;;;20.70;5.88;;;;;;;-144.73;100.00;54520.59;4941141;28;20619;-70
2023/08/05 01:28:28;;;;;;;17.45;5.70;;;;;;;-144.73;100.00;54563.69;4951053;28;20385;-70
2023/08/05 01:30:55;;;;;;;14.25;5.07;;;;;;;-144.73;100.00;54543.16;5002655;28;20033;-70
2023/08/05 01:33:21;;;;;;;13.25;4.80;;;;;;;-144.73;100.00;54604.75;4962034;28;20032;-70
2023/08/05 01:35:48;;;;;;;14.00;5.43;;;;;;;-144.73;100.00;54518.53;4947098;28;20029;-70
2023/08/05 01:38:14;;;;;;;13.52;5.43;;;;;;;-144.73;100.00;54514.44;4990941;28;20027;-70
2023/08/05 01:40:39;;;;;;;13.52;5.07;;;;;;;-144.73;100.00;54510.31;4992225;28;20043;-70
2023/08/05 01:43:04;;;;;;;10.52;3.92;;;;;;;-144.73;100.00;54508.28;5023352;28;20039;-70
2023/08/05 01:45:30;;;;;;;20.23;4.78;;;;;;;-144.73;100.00;54539.06;4973443;28;20104;-70
2023/08/05 01:47:55;;;;;;;29.85;5.22;;;;;;;-144.73;100.00;54510.31;4994862;28;20295;-70
2023/08/05 01:50:20;;;;;;;16.13;5.25;;;;;;;-144.73;100.00;54526.75;4994147;28;20157;-70
2023/08/05 01:52:46;;;;;;;17.30;4.53;;;;;;;-144.73;100.00;54510.31;4966161;28;20017;-70
2023/08/05 01:55:11;;;;;;;13.40;4.90;;;;;;;-144.73;100.00;54563.69;5018604;28;20070;-69
2023/08/05 01:57:36;;;;;;;21.55;6.05;;;;;;;-144.73;100.00;54543.16;4969332;28;20173;-69
2023/08/05 02:00:02;;;;;;;22.08;4.18;;;;;;;-144.73;100.00;54522.63;4943241;28;20023;-70
2023/08/05 02:02:28;;;;;;;9.52;4.07;;;;;;;-144.73;100.00;54555.47;4932516;28;20031;-70
2023/08/05 02:04:53;;;;;;;20.83;5.55;;;;;;;-144.73;100.00;54539.06;4973457;28;20048;-70
2023/08/05 02:07:18;;;;;;;8.93;4.35;;;;;;;-144.73;100.00;54514.44;4959483;28;20039;-71
2023/08/05 02:09:44;;;;;;;14.32;4.15;;;;;;;-144.73;100.00;54547.28;4932273;28;20028;-71
2023/08/05 02:12:09;;;;;;;22.95;5.35;;;;;;;-144.73;100.00;54522.63;4933548;28;20132;-71
2023/08/05 02:14:34;;;;;;;17.17;4.15;;;;;;;-144.73;100.00;54539.06;4943533;28;20027;-70
2023/08/05 02:17:00;;;;;;;16.42;4.63;;;;;;;-144.73;100.00;54571.91;4937054;28;20046;-69
2023/08/05 02:19:25;;;;;;;18.27;4.63;;;;;;;-144.73;100.00;54545.22;4933829;28;20031;-70
2023/08/05 02:21:50;;;;;;;23.67;5.10;;;;;;;-144.73;100.00;54495.97;4965515;28;20052;-70
2023/08/05 02:24:16;;;;;;;18.00;4.80;;;;;;;-144.73;100.00;54559.59;4949975;28;20063;-70
2023/08/05 02:26:44;;;;;;;13.45;4.55;;;;;;;-144.73;100.00;54571.91;4931680;28;20114;-70
2023/08/05 02:29:09;;;;;;;17.40;5.00;;;;;;;-144.73;100.00;54543.16;4996361;28;20024;-70
2023/08/05 02:31:35;;;;;;;19.40;5.30;;;;;;;-144.73;100.00;54539.06;4980923;28;20035;-71
2023/08/05 02:34:00;;;;;;;10.60;4.53;;;;;;;-144.73;100.00;54524.69;4973730;28;20053;-71
2023/08/05 02:36:25;;;;;;;17.25;3.95;;;;;;;-144.73;100.00;54518.53;4931791;28;20051;-70
2023/08/05 02:38:51;;;;;;;21.23;4.45;;;;;;;-144.73;100.00;54539.06;4969299;28;20577;-71
2023/08/05 02:41:16;;;;;;;19.75;4.28;;;;;;;-144.73;100.00;54555.47;4952676;28;20123;-70
2023/08/05 02:43:41;;;;;;;16.70;4.63;;;;;;;-144.73;100.00;54493.91;4959901;28;20518;-71
2023/08/05 02:46:07;;;;;;;9.05;4.05;;;;;;;-144.73;100.00;54522.63;4934204;28;20035;-70
2023/08/05 02:48:32;;;;;;;17.83;7.88;;;;;;;-144.73;100.00;54522.63;4973443;28;20032;-70
2023/08/05 02:50:58;;;;;;;23.95;8.07;;;;;;;-144.73;100.00;54530.84;4927542;28;20031;-70
2023/08/05 02:53:23;;;;;;;17.08;5.18;;;;;;;-144.73;100.00;54514.44;4930545;28;20509;-70
2023/08/05 02:55:48;;;;;;;19.08;4.68;;;;;;;-144.73;100.00;54539.06;4931488;28;20039;-70
2023/08/05 02:58:15;;;;;;;24.50;7.25;;;;;;;-144.73;100.00;54539.06;4940784;28;20098;-70
2023/08/05 03:00:41;;;;;;;15.02;4.60;;;;;;;-144.73;100.00;54543.16;4948504;28;20032;-70
2023/08/05 03:03:10;;;;;;;18.17;4.95;;;;;;;-144.73;100.00;54541.13;4933221;28;20077;-70
2023/08/05 03:05:36;;;;;;;16.02;5.07;;;;;;;-144.73;100.00;54547.28;4947394;28;20038;-69
2023/08/05 03:08:01;;;;;;;16.90;4.88;;;;;;;-144.73;100.00;54524.69;5018685;28;20015;-70
2023/08/05 03:10:26;;;;;;;11.30;5.03;;;;;;;-144.73;100.00;54584.22;4972053;28;20118;-70
2023/08/05 03:12:52;;;;;;;11.70;4.63;;;;;;;-144.73;100.00;54522.63;4983021;28;20037;-70
2023/08/05 03:15:17;;;;;;;10.63;4.05;;;;;;;-144.73;100.00;54498.00;5045341;28;20017;-70
2023/08/05 03:17:42;;;;;;;9.50;3.80;;;;;;;-144.73;100.00;54528.81;5001373;28;20044;-70
2023/08/05 03:20:26;;;;;;;13.32;4.38;;;;;;;-144.73;100.00;54522.63;4931412;28;20090;-69
2023/08/05 03:22:55;;;;;;;9.45;4.20;;;;;;;-144.73;100.00;54530.84;4922430;28;20029;-70
2023/08/05 03:25:22;;;;;;;11.70;4.45;;;;;;;-144.73;100.00;54539.06;4942705;28;20062;-70
2023/08/05 03:27:51;;;;;;;16.85;4.63;;;;;;;-144.73;100.00;54543.16;4947678;28;20046;-70
2023/08/05 03:30:17;;;;;;;13.63;5.03;;;;;;;-144.73;100.00;54547.28;4942120;28;20115;-70
2023/08/05 03:32:43;;;;;;;17.05;5.18;;;;;;;-144.73;100.00;54522.63;4940999;28;20429;-70
2023/08/05 03:35:08;;;;;;;17.55;4.57;;;;;;;-144.73;100.00;54539.06;4928117;28;20094;-71
2023/08/05 03:37:34;;;;;;;12.98;4.75;;;;;;;-144.73;100.00;54551.38;4937814;28;20430;-70
2023/08/05 03:39:59;;;;;;;17.42;5.35;;;;;;;-144.73;100.00;54547.28;5022714;28;20031;-70
2023/08/05 03:42:24;;;;;;;12.55;5.30;;;;;;;-144.73;100.00;54543.16;4963571;28;20025;-70
2023/08/05 03:44:50;;;;;;;12.55;4.63;;;;;;;-144.73;100.00;54524.69;4956461;28;20023;-70
2023/08/05 03:47:15;;;;;;;11.70;4.25;;;;;;;-144.73;100.00;54551.38;4948729;28;20027;-70
2023/08/05 03:49:41;;;;;;;13.35;4.55;;;;;;;-144.73;100.00;54530.84;4974333;28;20078;-70
2023/08/05 03:52:08;;;;;;;11.52;4.85;;;;;;;-144.73;100.00;54522.63;5010456;28;20035;-70
2023/08/05 03:54:33;;;;;;;13.02;4.85;;;;;;;-144.73;100.00;54547.28;4968880;28;20051;-70
2023/08/05 03:56:59;;;;;;;13.85;4.60;;;;;;;-144.73;100.00;54502.13;4934426;28;20063;-70
2023/08/05 03:59:25;;;;;;;13.15;4.38;;;;;;;-144.73;100.00;54551.38;4970393;28;20027;-70
2023/08/05 04:01:54;;;;;;;12.48;5.22;;;;;;;-144.73;100.00;54547.28;4980441;28;20162;-70
2023/08/05 04:04:19;;;;;;;21.10;4.78;;;;;;;-144.73;100.00;54539.06;4961899;28;20073;-70
2023/08/05 04:06:45;;;;;;;14.82;4.47;;;;;;;-144.73;100.00;54547.28;4949652;28;20040;-70
2023/08/05 04:09:12;;;;;;;29.67;4.65;;;;;;;-144.73;100.00;54555.47;4935002;28;20120;-70
2023/08/05 04:11:38;;;;;;;13.05;4.45;;;;;;;-144.73;100.00;54604.75;4990830;28;20102;-70
2023/08/05 04:14:04;;;;;;;11.40;4.18;;;;;;;-144.73;100.00;54571.91;4972884;28;20126;-70
2023/08/05 04:16:30;;;;;;;13.80;4.25;;;;;;;-144.73;100.00;54520.59;4988098;28;20041;-71
2023/08/05 04:18:58;;;;;;;14.95;4.03;;;;;;;-144.73;100.00;54559.59;5031172;28;20051;-71
2023/08/05 04:21:28;;;;;;;12.80;3.97;;;;;;;-144.73;100.00;54567.81;5028852;28;20067;-71
2023/08/05 04:23:54;;;;;;;11.93;3.95;;;;;;;-144.73;100.00;54512.38;4942595;28;20027;-70
2023/08/05 04:26:20;;;;;;;12.38;4.35;;;;;;;-144.73;100.00;54576.00;4934259;28;20442;-70
2023/08/05 04:28:48;;;;;;;12.57;4.10;;;;;;;-144.73;100.00;54516.47;4934135;28;20027;-70
2023/08/05 04:31:14;;;;;;;16.30;4.07;;;;;;;-144.73;100.00;54502.13;4934180;28;20097;-71
2023/08/05 04:33:39;;;;;;;28.58;4.78;;;;;;;-144.73;100.00;54518.53;4934629;28;20019;-70
2023/08/05 04:36:05;;;;;;;15.20;4.25;;;;;;;-144.73;100.00;54528.81;5004196;28;20043;-71
2023/08/05 04:38:30;;;;;;;18.98;5.03;;;;;;;-144.73;100.00;54539.06;4973727;28;20126;-71
2023/08/05 04:40:57;;;;;;;21.55;4.30;;;;;;;-144.73;100.00;54502.13;4977854;28;20093;-71
2023/08/05 04:43:22;;;;;;;16.48;5.05;;;;;;;-144.73;100.00;54530.84;4965719;28;20052;-71
2023/08/05 04:45:51;;;;;;;12.95;4.40;;;;;;;-144.73;100.00;54539.06;4950662;28;20054;-70
2023/08/05 04:48:17;;;;;;;22.75;6.15;;;;;;;-144.73;100.00;54543.16;4975343;28;20077;-71
2023/08/05 04:50:43;;;;;;;12.85;3.70;;;;;;;-144.73;100.00;54522.63;4937087;28;20031;-70
2023/08/05 04:53:08;;;;;;;14.23;4.72;;;;;;;-144.73;100.00;54539.06;5019413;28;20452;-70
2023/08/05 04:55:34;;;;;;;17.33;4.32;;;;;;;-144.73;100.00;54522.63;4961928;28;20031;-70
2023/08/05 04:57:59;;;;;;;17.98;5.28;;;;;;;-144.73;100.00;54543.16;4969190;28;20027;-71
2023/08/05 05:00:25;;;;;;;16.30;5.05;;;;;;;-144.73;100.00;54539.06;4969565;28;20015;-70
2023/08/05 05:02:51;;;;;;;16.80;4.70;;;;;;;-144.73;100.00;54539.06;5034345;28;20080;-70
2023/08/05 05:05:17;;;;;;;15.65;4.55;;;;;;;-144.73;100.00;54520.59;4933368;28;20023;-70
2023/08/05 05:07:42;;;;;;;14.82;3.90;;;;;;;-144.73;100.00;54473.38;4951680;28;20019;-70
2023/08/05 05:10:07;;;;;;;13.57;4.40;;;;;;;-144.73;100.00;54588.31;4945231;28;20077;-70
2023/08/05 05:12:36;;;;;;;14.02;4.03;;;;;;;-144.73;100.00;54567.81;4940382;28;20471;-70
2023/08/05 05:15:01;;;;;;;22.73;4.72;;;;;;;-144.73;100.00;54514.44;4956042;28;20020;-70
2023/08/05 05:17:35;;;;;;;19.05;4.50;;;;;;;-144.73;100.00;54530.84;5013677;28;20033;-72
2023/08/05 05:20:04;;;;;;;16.42;4.22;;;;;;;-144.73;100.00;54522.63;4993469;28;20039;-71
2023/08/05 05:22:30;;;;;;;14.00;4.28;;;;;;;-144.73;100.00;54561.63;4985986;28;20069;-71
2023/08/05 05:24:55;;;;;;;17.67;5.00;;;;;;;-144.73;100.00;54547.28;4974384;28;20062;-70
2023/08/05 05:27:21;;;;;;;17.13;4.53;;;;;;;-144.73;100.00;54522.63;4932321;28;20035;-70
2023/08/05 05:29:46;;;;;;;24.58;5.40;;;;;;;-144.73;100.00;54524.69;4940427;28;20031;-70
2023/08/05 05:32:12;;;;;;;15.10;4.97;;;;;;;-144.73;100.00;54547.28;4983051;28;20025;-71
2023/08/05 05:34:37;;;;;;;19.50;5.45;;;;;;;-144.73;100.00;54557.53;4975182;28;20026;-71
2023/08/05 05:37:03;;;;;;;22.50;5.88;;;;;;;-144.73;100.00;54563.69;5000599;28;20061;-71
2023/08/05 05:39:29;;;;;;;19.17;5.50;;;;;;;-144.73;100.00;54553.44;4982981;28;20052;-70
2023/08/05 05:41:55;;;;;;;14.68;5.82;;;;;;;-144.73;100.00;54522.63;5012652;28;20032;-70
2023/08/05 05:44:22;;;;;;;19.00;5.88;;;;;;;-144.73;100.00;54547.28;4954910;28;20162;-71
2023/08/05 05:46:47;;;;;;;23.13;6.20;;;;;;;-144.73;100.00;54555.47;4976183;28;20094;-70
2023/08/05 05:49:14;;;;;;;20.77;6.72;;;;;;;-144.73;100.00;54522.63;4989643;28;20159;-71
2023/08/05 05:51:42;;;;;;;15.52;5.20;;;;;;;-144.73;100.00;54547.28;4997871;28;20029;-70
2023/08/05 05:54:07;;;;;;;18.05;5.25;;;;;;;-144.73;100.00;54539.06;4999370;28;20454;-70
2023/08/05 05:56:32;;;;;;;14.65;5.13;;;;;;;-144.73;100.00;54506.22;4970071;28;20029;-71
2023/08/05 05:58:58;;;;;;;17.38;6.13;;;;;;;-144.73;100.00;54502.13;4961242;28;20035;-71
2023/08/05 06:01:24;;;;;;;23.70;5.70;;;;;;;-144.73;100.00;54555.47;4964382;28;20064;-70
2023/08/05 06:03:50;;;;;;;20.10;6.40;;;;;;;-144.73;100.00;54526.75;4950102;28;20026;-71
2023/08/05 06:06:15;;;;;;;16.65;6.45;;;;;;;-144.73;100.00;54567.81;4963452;28;20079;-71
2023/08/05 06:08:41;;;;;;;20.73;6.32;;;;;;;-144.73;100.00;54526.75;4966197;28;20023;-71
2023/08/05 06:11:08;;;;;;;26.73;6.13;;;;;;;-144.73;100.00;54551.38;4973751;28;20078;-70
2023/08/05 06:13:34;;;;;;;11.10;4.65;;;;;;;-144.73;100.00;54518.53;4962343;28;20048;-71
2023/08/05 06:16:00;;;;;;;19.83;5.18;;;;;;;-144.73;100.00;54518.53;4983217;28;20504;-71
2023/08/05 06:18:25;;;;;;;14.95;4.30;;;;;;;-144.73;100.00;54539.06;4943030;28;20030;-71
2023/08/05 06:20:51;;;;;;;18.30;4.63;;;;;;;-144.73;100.00;54539.06;4990683;28;20039;-70
2023/08/05 06:23:16;;;;;;;18.20;5.05;;;;;;;-144.73;100.00;54539.06;5038198;28;20021;-71
2023/08/05 06:25:42;;;;;;;17.45;5.07;;;;;;;-144.73;100.00;54514.44;5020000;28;20092;-70
2023/08/05 06:28:08;;;;;;;14.88;4.68;;;;;;;-144.73;100.00;54510.31;5029376;28;20111;-71
2023/08/05 06:30:34;;;;;;;16.88;5.10;;;;;;;-144.73;100.00;54514.44;4949132;28;20047;-71
2023/08/05 06:33:02;;;;;;;18.63;5.70;;;;;;;-144.73;100.00;54514.44;4934729;28;20510;-71
2023/08/05 06:35:27;;;;;;;22.33;5.50;;;;;;;-144.73;100.00;54539.06;4938216;28;20042;-71
2023/08/05 06:37:53;;;;;;;15.70;5.03;;;;;;;-144.73;100.00;54516.47;4940019;28;20035;-71
2023/08/05 06:40:18;;;;;;;17.88;5.20;;;;;;;-144.73;100.00;54567.81;4932179;28;20062;-71
2023/08/05 06:42:44;;;;;;;11.98;4.35;;;;;;;-144.73;100.00;54547.28;5006434;28;20027;-71
2023/08/05 06:45:10;;;;;;;21.45;5.20;;;;;;;-144.73;100.00;54604.75;4962353;28;20411;-71
2023/08/05 06:47:35;;;;;;;23.25;5.55;;;;;;;-144.73;100.00;54518.53;4961676;28;20019;-71
2023/08/05 06:50:06;;;;;;;15.50;5.03;;;;;;;-144.73;100.00;54516.47;4976903;28;20029;-71
2023/08/05 06:52:32;;;;;;;25.40;5.43;;;;;;;-144.73;100.00;54518.53;4983633;28;20053;-71
2023/08/05 06:55:00;;;;;;;24.73;6.00;;;;;;;-144.73;100.00;54506.22;4955721;28;20039;-71
2023/08/05 06:57:26;;;;;;;11.48;5.00;;;;;;;-144.73;100.00;54518.53;4992883;28;20087;-71
2023/08/05 06:59:51;;;;;;;14.35;5.05;;;;;;;-144.73;100.00;54514.44;5019099;28;20071;-71
2023/08/05 07:02:16;;;;;;;19.08;5.30;;;;;;;-144.73;100.00;54604.75;4973918;28;20041;-71
2023/08/05 07:04:42;;;;;;;14.55;4.53;;;;;;;-144.73;100.00;54530.84;4986811;28;20023;-70
2023/08/05 07:07:07;;;;;;;10.05;4.10;;;;;;;-144.73;100.00;54551.38;4971646;28;20116;-71
2023/08/05 07:09:32;;;;;;;13.95;5.47;;;;;;;-144.73;100.00;54539.06;4962227;28;20092;-70
2023/08/05 07:11:58;;;;;;;17.83;4.70;;;;;;;-144.73;100.00;54541.13;4931730;28;20097;-71
2023/08/05 07:14:23;;;;;;;22.75;4.55;;;;;;;-144.73;100.00;54518.53;4948933;28;20036;-71
2023/08/05 07:16:48;;;;;;;13.88;4.75;;;;;;;-144.73;100.00;54539.06;4968388;28;20031;-71
2023/08/05 07:19:14;;;;;;;18.25;4.65;;;;;;;-144.73;100.00;54567.81;4948990;28;20039;-71
2023/08/05 07:21:39;;;;;;;13.20;4.80;;;;;;;-144.73;100.00;54559.59;4976710;28;20029;-71
2023/08/05 07:24:04;;;;;;;17.45;4.55;;;;;;;-144.73;100.00;54588.31;4961834;28;20136;-71
2023/08/05 07:26:30;;;;;;;16.27;4.25;;;;;;;-144.73;100.00;54539.06;4971805;28;20031;-71
2023/08/05 07:28:55;;;;;;;14.85;4.57;;;;;;;-144.73;100.00;54543.16;4958673;28;20043;-71
2023/08/05 07:31:20;;;;;;;17.45;3.53;;;;;;;-144.73;100.00;54506.22;4957505;28;20031;-71
2023/08/05 07:33:46;;;;;;;12.07;3.67;;;;;;;-144.73;100.00;54563.69;4984303;28;20057;-71
2023/08/05 07:36:17;;;;;;;10.85;3.03;;;;;;;-144.73;100.00;54510.31;5005934;28;20129;-71
2023/08/05 07:38:45;;;;;;;9.88;3.10;;;;;;;-144.73;100.00;54489.81;4995792;28;20107;-70
2023/08/05 07:41:18;;;;;;;10.38;2.88;;;;;;;-144.73;100.00;54489.81;5003266;28;20130;-70
2023/08/05 07:43:44;;;;;;;10.35;2.92;;;;;;;-144.73;100.00;54477.47;5031788;28;20038;-71
2023/08/05 07:46:13;;;;;;;10.13;2.97;;;;;;;-144.73;100.00;54489.81;4996510;28;20041;-71
2023/08/05 07:48:39;;;;;;;11.02;3.05;;;;;;;-144.73;100.00;54526.75;4964407;28;20106;-71
2023/08/05 07:51:08;;;;;;;10.82;3.20;;;;;;;-144.73;100.00;54506.22;4959918;28;20035;-72
2023/08/05 07:53:37;;;;;;;14.27;3.28;;;;;;;-144.73;100.00;54481.59;4961914;28;20034;-71
2023/08/05 07:56:13;;;;;;;13.05;2.80;;;;;;;-144.73;100.00;54477.47;4993222;28;20027;-71
2023/08/05 07:58:41;;;;;;;15.05;2.70;;;;;;;-144.73;99.78;54510.31;4993883;28;20017;-71
2023/08/05 08:01:07;;;;;;;12.27;3.47;;;;;;;-144.73;100.00;54465.16;4988533;28;20045;-71
2023/08/05 08:03:33;;;;;;;8.68;2.45;;;;;;;-144.73;93.60;54514.44;4989518;28;20053;-72
2023/08/05 08:05:59;;;;;;;12.45;2.60;;;;;;;-144.73;87.07;54489.81;5014389;28;20048;-71
2023/08/05 08:08:24;;;;;;;9.25;3.30;;;;;;;-144.73;88.31;54485.69;4977130;28;20107;-71
2023/08/05 08:10:50;;;;;;;11.48;2.67;;;;;;;-144.73;91.75;54477.47;5001532;28;20025;-72
2023/08/05 08:13:15;;;;;;;15.85;3.33;;;;;;;-144.73;88.76;54469.28;4984198;28;20032;-72
2023/08/05 08:15:40;;;;;;;10.13;3.13;;;;;;;-144.73;86.22;54465.16;5008148;28;20036;-71
2023/08/05 08:18:06;;;;;;;12.07;2.60;;;;;;;-144.73;80.33;54477.47;4975958;28;20070;-72
2023/08/05 08:20:31;;;;;;;6.10;1.80;;;;;;;-144.73;80.52;54454.91;4975566;28;20114;-71
2023/08/05 08:22:56;;;;;;;10.00;2.05;;;;;;;-144.73;77.41;54469.28;4952822;28;20035;-72
2023/08/05 08:25:22;;;;;;;7.80;2.83;;;;;;;-144.73;73.94;54452.84;4969779;28;20494;-72
2023/08/05 08:27:47;;;;;;;4.32;1.42;;;;;;;-144.73;60.60;54444.66;4995452;28;20019;-72
2023/08/05 08:30:12;;;;;;;5.80;1.70;;;;;;;-144.73;66.19;54469.28;4979632;28;20031;-71
2023/08/05 08:32:38;;;;;;;8.90;2.03;;;;;;;-144.73;69.68;54440.53;4952305;28;20031;-72
2023/08/05 08:35:04;;;;;;;13.05;2.70;;;;;;;-144.73;69.50;54454.91;4949154;28;20070;-71
2023/08/05 08:37:29;;;;;;;3.97;1.67;;;;;;;-144.73;72.52;54487.75;4967421;28;20484;-71
2023/08/05 08:39:55;;;;;;;7.05;1.80;;;;;;;-144.73;67.88;54426.16;4946511;28;20033;-71
2023/08/05 08:42:21;;;;;;;5.55;1.52;;;;;;;-144.73;64.70;54477.47;4950473;28;20049;-71
2023/08/05 08:44:48;;;;;;;3.88;1.92;;;;;;;-144.73;64.44;54473.38;4933632;28;20031;-71
2023/08/05 08:47:15;;;;;;;10.23;2.55;;;;;;;-144.73;63.00;54444.66;4965831;28;20035;-71
2023/08/05 08:49:41;;;;;;;5.47;1.83;;;;;;;-144.73;63.21;54461.06;4951327;28;20023;-71
2023/08/05 08:52:08;;;;;;;5.78;1.85;;;;;;;-144.73;61.93;54407.69;4959463;28;20031;-72
2023/08/05 08:54:34;;;;;;;4.07;1.77;;;;;;;-144.73;62.70;54446.69;4949614;28;20039;-72
2023/08/05 08:56:59;;;;;;;7.63;2.30;;;;;;;-144.73;64.46;54407.69;4954343;28;20066;-72
2023/08/05 08:59:24;;;;;;;9.02;2.53;;;;;;;-144.73;60.74;54442.59;4970933;28;20131;-72
2023/08/05 09:01:51;;;;;;;5.45;1.63;;;;;;;-144.73;57.64;54389.22;4939895;28;20065;-72
2023/08/05 09:04:18;;;;;;;3.92;1.40;;;;;;;-144.73;56.18;54432.31;5025056;28;20031;-72
2023/08/05 09:06:46;;;;;;;4.57;1.58;;;;;;;-144.73;54.22;54461.06;4954290;28;20023;-72
2023/08/05 09:09:11;;;;;;;6.88;2.33;;;;;;;-144.73;59.67;54465.16;4992548;28;20017;-72
2023/08/05 09:11:37;;;;;;;2.65;1.58;;;;;;;-144.73;62.26;54465.16;4962683;28;20039;-72
2023/08/05 09:14:03;;;;;;;7.60;2.22;;;;;;;-144.73;62.14;54485.69;4972195;28;20086;-71
2023/08/05 09:16:29;;;;;;;6.53;2.05;;;;;;;-144.73;63.54;54461.06;5032422;28;20504;-72
2023/08/05 09:18:55;;;;;;;5.70;2.28;;;;;;;-144.73;61.47;54454.91;4968463;28;20031;-72
2023/08/05 09:21:24;;;;;;;5.43;1.88;;;;;;;-144.73;63.85;54424.13;4949980;28;20092;-72
2023/08/05 09:23:49;;;;;;;7.47;2.05;;;;;;;-144.73;63.24;54498.00;4950314;28;20042;-72
2023/08/05 09:26:25;;;;;;;5.47;2.25;;;;;;;-144.73;64.98;54444.66;4949769;28;20031;-72
2023/08/05 09:28:50;;;;;;;4.75;1.38;;;;;;;-144.73;63.07;54481.59;4946287;28;20079;-71
2023/08/05 09:31:16;;;;;;;5.78;1.63;;;;;;;-144.73;65.50;54512.38;4965914;28;20118;-72
2023/08/05 09:33:42;;;;;;;5.10;1.70;;;;;;;-144.73;65.44;54489.81;4956223;28;20138;-70
2023/08/05 09:36:09;;;;;;;5.85;2.00;;;;;;;-144.73;67.33;54465.16;4958409;28;20042;-71
2023/08/05 09:38:35;;;;;;;6.18;1.80;;;;;;;-144.73;66.86;54479.53;5033968;28;20057;-70
2023/08/05 09:41:01;;;;;;;3.80;1.90;;;;;;;-144.73;67.56;54465.16;4958655;28;20116;-71
2023/08/05 09:43:35;;;;;;;4.82;1.90;;;;;;;-144.73;68.28;54465.16;4974395;28;20500;-70
2023/08/05 09:46:04;;;;;;;5.82;2.20;;;;;;;-144.73;66.25;54477.47;4960069;28;20110;-70
2023/08/05 09:48:38;;;;;;;8.27;2.00;;;;;;;-144.73;67.65;54473.38;4941968;28;20038;-70
2023/08/05 09:51:05;;;;;;;8.25;1.75;;;;;;;-144.73;67.04;54456.97;4958933;28;20059;-70
2023/08/05 09:53:34;;;;;;;5.07;2.08;;;;;;;-144.73;67.44;54493.91;4973338;28;20030;-70
2023/08/05 09:56:00;;;;;;;7.40;2.08;;;;;;;-144.73;64.73;54461.06;4960717;28;20519;-71
2023/08/05 09:58:26;;;;;;;6.88;2.22;;;;;;;-144.73;61.26;54485.69;4960942;28;20026;-70
2023/08/05 10:00:52;;;;;;;4.57;1.80;;;;;;;-144.73;59.65;54481.59;4960979;28;20121;-70
2023/08/05 10:03:19;;;;;;;8.20;2.50;;;;;;;-144.73;59.58;54456.97;5033011;28;20113;-70
2023/08/05 10:05:44;;;;;;;5.05;1.95;;;;;;;-144.73;59.30;54477.47;4942684;28;20038;-70
2023/08/05 10:08:12;;;;;;;4.63;2.00;;;;;;;-144.73;59.59;54452.84;4961704;28;20119;-70
2023/08/05 10:10:39;;;;;;;4.60;2.08;;;;;;;-144.73;60.00;54452.84;4942053;28;20031;-70
2023/08/05 10:13:14;;;;;;;3.67;1.85;;;;;;;-144.73;61.98;54483.66;4943407;28;20456;-70
2023/08/05 10:15:42;;;;;;;8.73;2.63;;;;;;;-144.73;61.03;54469.28;4975192;28;20030;-70
2023/08/05 10:18:09;;;;;;;8.82;2.42;;;;;;;-144.73;61.85;54424.13;4947865;28;20563;-70
2023/08/05 10:20:36;;;;;;;10.57;2.45;;;;;;;-144.73;59.17;54399.50;4946109;28;20030;-70
2023/08/05 10:23:09;;;;;;;7.63;1.80;;;;;;;-144.73;61.73;54448.75;4957605;28;20023;-71
2023/08/05 10:25:41;;;;;;;7.30;2.00;;;;;;;-144.73;59.14;54465.16;5035549;28;20039;-71
2023/08/05 10:28:07;;;;;;;4.97;3.05;;;;;;;-144.73;61.42;54456.97;5033159;28;20055;-71
2023/08/05 10:30:43;;;;;;;5.63;1.98;;;;;;;-144.73;61.56;54452.84;5031370;28;20043;-71
2023/08/05 10:33:09;;;;;;;9.10;2.10;;;;;;;-144.73;63.26;54479.53;4963603;28;20110;-71
2023/08/05 10:35:40;;;;;;;5.85;2.63;;;;;;;-144.73;61.79;54409.75;4946537;28;20036;-71
2023/08/05 10:38:11;;;;;;;6.82;2.50;;;;;;;-144.73;60.74;54436.44;4960873;28;20034;-71
2023/08/05 10:40:41;;;;;;;8.38;2.78;;;;;;;-144.73;60.21;54432.31;4959467;28;20070;-71
2023/08/05 10:43:07;;;;;;;6.30;1.98;;;;;;;-144.73;61.41;54432.31;4947885;28;20070;-71
2023/08/05 10:45:34;;;;;;;7.22;1.83;;;;;;;-144.73;59.09;54436.44;4961449;28;20114;-71
2023/08/05 10:47:59;;;;;;;12.68;2.83;;;;;;;-144.73;60.76;54436.44;4940817;28;20028;-72
2023/08/05 10:50:36;;;;;;;6.65;2.08;;;;;;;-144.73;51.65;54399.50;4951792;28;20042;-71
2023/08/05 10:53:21;;;;;;;4.93;2.17;;;;;;;-144.73;49.59;54383.06;5032563;28;20049;-72
2023/08/05 10:55:53;;;;;;;8.52;2.22;;;;;;;-144.73;50.06;54417.97;4960709;28;20035;-71
2023/08/05 10:58:24;;;;;;;6.38;2.00;;;;;;;-144.73;49.55;54407.69;4953556;28;20510;-72
2023/08/05 11:00:55;;;;;;;2.67;1.57;;;;;;;-144.73;49.65;54407.69;4948549;28;20027;-72